• Join FlightAware (Why Join?)
  • Login
  • US Flag 
05:54AM EST


 

Airport Tracker/Info


-or-


 

Live Flight TrackerFlight Track Log ✈ N54PE ✈ 19-Jun-2013 ✈ KGYY - KYIP

Flight Track Log - Related Links

Times and Time Zones

All times are in EDT time to prevent confusion due to time zone crossing. See the N54PE flight status page for this flight to view local times or setup timezone preferences in your user account.

Time Position Orientation Groundspeed Altitude Reporting Facility
EDT Latitude Longitude Course Direction KTS MPH feet Rate Location/Type
05:20PM 41.6560 -87.3350 22° Northeast 192 221 3,900  Level FlightAware
05:21PM 41.6790 -87.3220 23° Northeast 201 231 4,800 1,980 Climbing FlightAware
05:21PM 41.7040 -87.3070 24° Northeast 203 234 5,800 1,800 Climbing FlightAware
05:21PM 41.7250 -87.2950 23° Northeast 213 245 6,500 1,560 Climbing FlightAware
05:22PM 41.7470 -87.2810 25° Northeast 220 253 7,100 1,500 Climbing FlightAware
05:22PM 41.7670 -87.2680 26° Northeast 223 257 7,600 1,500 Climbing FlightAware
05:22PM 41.7740 -87.2580 47° Northeast 223 257 7,900 1,740 Climbing FlightAware
05:23PM 41.7780 -87.2380 75° East 222 255 8,300 1,500 Climbing FlightAware
05:23PM 41.7780 -87.1990 90° East 224 258 9,000 1,500 Climbing FlightAware
05:23PM 41.7790 -87.1850 85° East 225 259 9,300 1,380 Climbing FlightAware
05:24PM 41.7800 -87.1460 88° East 229 264 9,900 1,260 Climbing FlightAware
05:25PM 41.7800 -87.0770 90° East 241 277 10,900 1,320 Climbing FlightAware
05:25PM 41.7790 -87.0150 91° East 251 289 11,800 1,140 Climbing FlightAware
05:26PM 41.7780 -86.9500 91° East 265 305 12,500 960 Climbing FlightAware
05:27PM 41.7840 -86.8590 85° East 268 308 13,400 1,020 Climbing FlightAware
05:27PM 41.7940 -86.7930 78° East 269 310 14,200 960 Climbing FlightAware
05:28PM 41.8050 -86.7230 78° East 273 314 14,800 420 Climbing FlightAware
05:29PM 41.8150 -86.6510 79° East 293 337 14,800  Level FlightAware
05:30PM 41.8270 -86.5680 79° East 305 351 14,800  Level FlightAware
05:30PM 41.8380 -86.4910 79° East 309 356 14,800  Level FlightAware
05:31PM 41.8480 -86.4130 80° East 311 358 14,800  Level FlightAware
05:32PM 41.8590 -86.3350 79° East 311 358 14,800  Level FlightAware
05:32PM 41.8710 -86.2490 79° East 311 358 14,800  Level FlightAware
05:33PM 41.8840 -86.1540 80° East 313 360 14,800  Level FlightAware
05:34PM 41.8960 -86.0630 80° East 313 360 14,800  Level FlightAware
05:35PM 41.9060 -85.9930 79° East 314 361 14,800  Level FlightAware
05:35PM 41.9180 -85.9040 80° East 312 359 14,800  Level FlightAware
05:36PM 41.9280 -85.8250 80° East 313 360 14,800  Level FlightAware
05:37PM 41.9380 -85.7500 80° East 313 360 14,800  Level FlightAware
05:38PM 41.9490 -85.6650 80° East 313 360 14,800  Level FlightAware
05:38PM 41.9600 -85.5840 80° East 314 361 14,800  Level FlightAware
05:39PM 41.9710 -85.4970 80° East 313 360 14,800  Level FlightAware
05:40PM 41.9790 -85.4360 80° East 314 361 14,800  Level FlightAware
05:40PM 41.9890 -85.3360 82° East 314 361 14,800  Level FlightAware
05:41PM 41.9970 -85.2740 80° East 314 361 14,800  Level FlightAware
05:42PM 42.0050 -85.2150 80° East 314 361 14,800 -300 Level FlightAware
05:46PM 41.9800 -84.6250 93° East 317 365 13,400 -360 Descending FlightAware
05:47PM 41.9790 -84.5400 91° East 317 365 13,100 -240 Descending FlightAware
05:48PM 41.9780 -84.4780 91° East 317 365 13,100  Level FlightAware
05:48PM 41.9780 -84.4110 90° East 317 365 13,100 -2,100 Level FlightAware
05:49PM 41.9783 -84.3181 90° East 295 339 10,000 -2,040 Descending Cleveland Center
05:50PM 41.9747 -84.2339 93° East 279 321 10,100  Climbing Cleveland Center
05:51PM 41.9697 -84.1275 94° East 284 327 10,000 -240 Descending Cleveland Center
05:52PM 42.0267 -84.0411 48° Northeast 282 325 9,600 -960 Descending Cleveland Center
05:58PM 42.2920 -83.6820 48° Northeast 198 228 3,800 -960 Descending FlightAware
05:58PM 42.3060 -83.6520 58° Northeast 200 230 3,900  Climbing FlightAware
05:58PM 42.3150 -83.6350 54° Northeast 199 229 3,800 -300 Descending FlightAware
05:59PM 42.3290 -83.6060 57° Northeast 190 219 3,700 -600 Descending FlightAware
05:59PM 42.3350 -83.5940 56° Northeast 188 216 3,400 -1,500 Descending FlightAware
05:59PM 42.3450 -83.5650 65° Northeast 187 215 2,700 -1,140 Descending FlightAware
06:00PM 42.3360 -83.5360 113° Southeast 167 192 2,300 -660 Descending FlightAware
06:00PM 42.3230 -83.5180 134° Southeast 130 150 2,100 -360 Descending FlightAware
06:01PM 42.3100 -83.5040 141° Southeast 122 140 2,000 -120 Descending FlightAware
06:01PM 42.2950 -83.4940 154° Southeast 120 138 2,000 -300 Level FlightAware
06:02PM 42.2790 -83.4920 175° South 119 137 1,700 -780 Descending FlightAware
06:02PM 42.2640 -83.4970 194° South 123 142 1,300 -780 Descending FlightAware
06:03PM 42.2590 -83.5030 222° Southwest 123 142 1,200 -840 Descending FlightAware
06:03PM 42.2560 -83.5080 231° Southwest 121 139 1,000 -360 Descending FlightAware
06:03PM 42.2470 -83.5210 227° Southwest 121 139 1,000  Level FlightAware